Time;durP1;ratioP1;P1;durP2;ratioP2;P2;SDS_P1;SDS_P2;PMS_P1;PMS_P2;Temp;Humidity;BMP_temperature;BMP_pressure;BME280_temperature;BME280_humidity;BME280_pressure;Samples;Min_cycle;Max_cycle;Signal;HPM_P1;HPM_P2
2022/11/04 00:12:23;;;;;;;7.95;4.82;;;11.20;99.90;;;;;;4934703;29;20066;-63
2022/11/04 00:18:39;;;;;;;6.32;3.60;;;11.20;99.90;;;;;;4956541;29;20058;-63
2022/11/04 00:29:18;;;;;;;5.43;3.13;;;11.10;99.90;;;;;;4956437;29;20081;-64
2022/11/04 00:34:15;;;;;;;3.97;2.60;;;11.10;99.90;;;;;;4932081;29;20056;-66
2022/11/04 00:36:40;;;;;;;4.20;2.75;;;11.10;99.90;;;;;;4936682;29;20055;-66
2022/11/04 00:39:06;;;;;;;7.28;3.38;;;11.10;99.90;;;;;;4920010;29;20140;-66
2022/11/04 00:41:32;;;;;;;6.82;3.17;;;11.10;99.90;;;;;;4937353;29;20479;-66
2022/11/04 00:44:01;;;;;;;4.53;3.10;;;11.10;99.90;;;;;;4937078;29;20047;-66
2022/11/04 00:46:29;;;;;;;4.65;2.60;;;11.10;99.90;;;;;;4937273;29;20055;-66
2022/11/04 00:48:55;;;;;;;3.10;1.70;;;11.10;99.90;;;;;;4936306;29;20047;-66
2022/11/04 00:51:21;;;;;;;2.25;1.73;;;11.00;99.90;;;;;;4936878;29;20116;-66
2022/11/04 00:53:47;;;;;;;1.73;1.45;;;11.00;99.90;;;;;;4936772;29;20146;-66
2022/11/04 00:56:13;;;;;;;1.67;1.20;;;10.90;99.90;;;;;;4919824;29;20039;-66
2022/11/04 00:58:39;;;;;;;1.67;1.08;;;10.80;99.90;;;;;;4937073;29;20111;-66
2022/11/04 01:01:16;;;;;;;1.70;1.05;;;10.80;99.90;;;;;;4936949;29;20475;-66
2022/11/04 01:03:43;;;;;;;1.05;0.98;;;10.80;99.90;;;;;;4936940;29;20044;-66
2022/11/04 01:06:08;;;;;;;0.80;0.77;;;10.80;99.90;;;;;;4936952;29;20054;-66
2022/11/04 01:08:34;;;;;;;1.30;0.80;;;10.70;99.90;;;;;;4903817;29;20047;-66
2022/11/04 01:11:02;;;;;;;1.10;0.85;;;10.70;99.90;;;;;;4936815;29;20048;-66
2022/11/04 01:13:27;;;;;;;1.58;0.88;;;10.70;99.90;;;;;;4936768;29;20525;-65
2022/11/04 01:15:53;;;;;;;0.80;0.63;;;10.70;99.90;;;;;;4919493;29;20075;-66
2022/11/04 01:18:19;;;;;;;1.73;0.85;;;10.70;99.90;;;;;;4936681;29;20047;-66
2022/11/04 01:20:45;;;;;;;1.48;0.80;;;10.60;99.90;;;;;;4936748;29;20407;-65
2022/11/04 01:23:10;;;;;;;0.75;0.60;;;10.60;99.90;;;;;;4936651;29;20397;-66
2022/11/04 01:25:40;;;;;;;0.70;0.70;;;10.60;99.90;;;;;;4936667;29;20474;-67
2022/11/04 01:28:05;;;;;;;0.60;0.60;;;10.60;99.90;;;;;;4919407;29;20055;-65
2022/11/04 01:30:31;;;;;;;1.80;0.70;;;10.90;99.90;;;;;;4936585;29;20039;-66
2022/11/04 01:32:57;;;;;;;1.75;0.60;;;10.60;99.90;;;;;;4919410;29;20038;-66
2022/11/04 01:35:23;;;;;;;0.88;0.65;;;10.70;99.90;;;;;;4919041;29;20071;-66
2022/11/04 01:37:48;;;;;;;0.95;0.47;;;10.60;99.90;;;;;;4919584;29;20554;-66
2022/11/04 01:40:14;;;;;;;0.43;0.40;;;10.60;99.90;;;;;;4936447;29;20551;-66
2022/11/04 01:42:40;;;;;;;0.82;0.30;;;10.50;99.90;;;;;;4936119;29;20483;-65
2022/11/04 01:45:12;;;;;;;0.30;0.30;;;10.50;99.90;;;;;;4936344;29;20047;-66
2022/11/04 01:47:48;;;;;;;0.38;0.32;;;10.50;99.90;;;;;;4936075;29;20044;-66
2022/11/04 01:50:19;;;;;;;0.50;0.30;;;10.50;99.90;;;;;;4936345;29;20047;-65
2022/11/04 01:53:10;;;;;;;0.35;0.35;;;10.40;99.90;;;;;;4903494;29;20051;-66
2022/11/04 01:55:42;;;;;;;0.30;0.30;;;10.50;99.90;;;;;;4935478;29;20089;-66
2022/11/04 01:58:12;;;;;;;0.75;0.35;;;10.40;99.90;;;;;;4936040;29;20076;-65
2022/11/04 02:00:39;;;;;;;0.28;0.25;;;10.70;99.90;;;;;;4937722;29;20039;-65
2022/11/04 02:03:14;;;;;;;1.63;0.30;;;10.40;99.90;;;;;;4940225;29;20119;-66
2022/11/04 02:05:41;;;;;;;0.30;0.30;;;10.40;99.90;;;;;;4940191;29;20543;-66
2022/11/04 02:08:08;;;;;;;0.63;0.30;;;10.40;99.90;;;;;;4939835;29;20050;-66
2022/11/04 02:10:34;;;;;;;0.20;0.20;;;10.40;99.90;;;;;;4940091;29;20043;-66
2022/11/04 02:13:04;;;;;;;1.63;0.20;;;10.40;99.90;;;;;;4939706;29;20042;-66
2022/11/04 02:15:35;;;;;;;0.30;0.30;;;10.40;99.90;;;;;;4922744;29;20043;-66
2022/11/04 02:18:10;;;;;;;0.20;0.20;;;10.40;99.90;;;;;;4938604;29;20039;-66
2022/11/04 02:21:14;;;;;;;4.32;0.30;;;10.30;99.90;;;;;;4922485;29;20043;-66
2022/11/04 02:23:56;;;;;;;0.30;0.30;;;10.40;99.90;;;;;;4939899;29;20103;-66
2022/11/04 02:26:48;;;;;;;0.30;0.30;;;10.40;99.90;;;;;;4939922;29;20046;-66
2022/11/04 02:29:31;;;;;;;6.03;0.38;;;10.40;99.90;;;;;;4939708;29;20122;-66
2022/11/04 02:32:18;;;;;;;0.25;0.25;;;10.40;99.90;;;;;;4939442;29;20040;-66
2022/11/04 02:35:03;;;;;;;0.80;0.35;;;10.40;99.90;;;;;;4939344;29;20048;-66
2022/11/04 02:37:57;;;;;;;0.90;0.30;;;10.40;99.90;;;;;;4939647;29;20495;-66
2022/11/04 02:40:31;;;;;;;1.13;0.43;;;10.50;99.90;;;;;;4939615;29;20372;-66
2022/11/04 02:43:02;;;;;;;0.10;0.10;;;10.40;99.90;;;;;;4939494;29;20442;-66
2022/11/04 02:45:43;;;;;;;0.20;0.20;;;10.50;99.90;;;;;;4922555;29;20035;-66
2022/11/04 02:48:48;;;;;;;1.37;0.30;;;10.50;99.90;;;;;;4939457;29;20463;-66
2022/11/04 02:51:34;;;;;;;0.20;0.20;;;10.50;99.90;;;;;;4880441;29;20376;-66
2022/11/04 02:54:25;;;;;;;0.45;0.20;;;10.50;99.90;;;;;;4936827;29;20062;-66
2022/11/04 02:56:55;;;;;;;0.20;0.20;;;10.50;99.90;;;;;;4921995;29;20044;-66
2022/11/04 02:59:45;;;;;;;0.17;0.17;;;10.50;99.90;;;;;;4939257;29;20051;-66
2022/11/04 03:02:17;;;;;;;0.20;0.20;;;10.50;99.90;;;;;;4922131;29;20043;-66
2022/11/04 03:04:48;;;;;;;0.20;0.20;;;10.50;99.90;;;;;;4921806;29;20058;-66
2022/11/04 03:07:17;;;;;;;0.52;0.25;;;10.60;99.90;;;;;;4939148;29;20044;-66
2022/11/04 03:09:47;;;;;;;0.10;0.10;;;10.50;99.90;;;;;;4939063;29;20498;-66
2022/11/04 03:12:17;;;;;;;0.28;0.20;;;10.40;99.90;;;;;;4920745;29;20048;-66
2022/11/04 03:14:48;;;;;;;0.32;0.20;;;10.40;99.90;;;;;;4938850;29;20048;-66
2022/11/04 03:17:40;;;;;;;0.15;0.10;;;10.40;99.90;;;;;;4938636;29;20040;-66
2022/11/04 03:20:11;;;;;;;0.20;0.20;;;10.40;99.90;;;;;;4938902;29;20047;-66
2022/11/04 03:22:37;;;;;;;0.35;0.30;;;10.40;99.90;;;;;;4921500;29;20075;-66
2022/11/04 03:25:06;;;;;;;0.20;0.20;;;10.40;99.90;;;;;;4938816;29;20036;-66
2022/11/04 03:27:51;;;;;;;0.40;0.20;;;10.40;99.90;;;;;;4938708;29;20083;-66
2022/11/04 03:30:19;;;;;;;0.30;0.30;;;10.40;99.90;;;;;;4938748;29;20562;-66
2022/11/04 03:33:05;;;;;;;0.50;0.28;;;10.40;99.90;;;;;;4938652;29;20094;-66
2022/11/04 03:35:32;;;;;;;0.88;0.30;;;10.40;99.90;;;;;;4938236;29;20063;-66
2022/11/04 03:37:58;;;;;;;0.10;0.10;;;10.40;99.90;;;;;;4938228;29;20094;-67
2022/11/04 03:40:24;;;;;;;0.32;0.22;;;10.40;99.90;;;;;;4938390;29;20048;-68
2022/11/04 03:43:12;;;;;;;0.20;0.20;;;10.40;99.90;;;;;;4938465;29;20043;-68
2022/11/04 03:45:39;;;;;;;0.20;0.20;;;10.40;99.90;;;;;;4938452;29;20052;-68
2022/11/04 03:48:05;;;;;;;0.25;0.25;;;10.60;99.90;;;;;;4938131;29;20048;-67
2022/11/04 03:50:38;;;;;;;0.93;0.52;;;10.30;99.90;;;;;;4938347;29;20118;-67
2022/11/04 03:53:03;;;;;;;1.08;0.40;;;10.30;99.90;;;;;;4938195;29;20040;-67
2022/11/04 03:55:58;;;;;;;0.40;0.28;;;10.30;99.90;;;;;;4921178;29;20122;-67
2022/11/04 03:58:46;;;;;;;0.55;0.35;;;10.30;99.90;;;;;;4938203;29;20074;-67
2022/11/04 04:01:36;;;;;;;0.20;0.20;;;10.30;99.90;;;;;;4938132;29;20039;-67
2022/11/04 04:04:13;;;;;;;0.80;0.60;;;10.30;99.90;;;;;;4938036;29;20110;-67
2022/11/04 04:06:42;;;;;;;1.02;0.35;;;10.30;99.90;;;;;;4938021;29;20051;-67
2022/11/04 04:09:20;;;;;;;0.95;0.50;;;10.30;99.90;;;;;;4920631;29;20150;-67
2022/11/04 04:11:57;;;;;;;0.95;0.45;;;10.40;99.90;;;;;;4937754;29;20051;-68
2022/11/04 04:14:40;;;;;;;0.20;0.20;;;10.20;99.90;;;;;;4937849;29;20036;-67
2022/11/04 04:17:29;;;;;;;0.20;0.20;;;10.10;99.90;;;;;;4937550;29;20044;-67
2022/11/04 04:20:05;;;;;;;1.73;0.35;;;10.00;99.90;;;;;;4937760;29;20054;-66
2022/11/04 04:22:36;;;;;;;0.10;0.10;;;9.90;99.90;;;;;;4937661;29;20031;-66
2022/11/04 04:27:51;;;;;;;0.60;0.20;;;9.80;99.90;;;;;;4937616;29;20563;-66
2022/11/04 04:30:17;;;;;;;0.13;0.10;;;9.70;99.90;;;;;;4937307;29;20094;-66
2022/11/04 04:32:56;;;;;;;0.50;0.30;;;9.70;99.90;;;;;;4920224;29;20130;-67
2022/11/04 04:35:41;;;;;;;1.50;0.35;;;9.70;99.90;;;;;;4937188;29;20131;-66
2022/11/04 04:46:52;;;;;;;0.20;0.20;;;9.60;99.90;;;;;;4937308;29;20126;-67
2022/11/04 04:49:18;;;;;;;0.15;0.15;;;9.60;99.90;;;;;;4937208;29;20043;-66
2022/11/04 04:51:46;;;;;;;1.88;0.20;;;9.60;99.90;;;;;;4919942;29;20506;-66
2022/11/04 04:54:13;;;;;;;0.20;0.20;;;9.90;99.90;;;;;;4919710;29;20040;-66
2022/11/04 04:56:38;;;;;;;0.13;0.13;;;9.70;99.90;;;;;;4937153;29;20075;-67
2022/11/04 04:59:04;;;;;;;0.10;0.10;;;9.70;99.90;;;;;;4919710;29;20043;-67
2022/11/04 05:01:31;;;;;;;0.50;0.15;;;9.70;99.90;;;;;;4920114;29;20107;-67
2022/11/04 05:03:56;;;;;;;0.10;0.10;;;9.70;99.90;;;;;;4936962;29;20051;-67
2022/11/04 05:06:22;;;;;;;4.00;0.32;;;9.70;99.90;;;;;;4920059;29;20542;-66
2022/11/04 05:08:48;;;;;;;0.22;0.20;;;9.80;99.90;;;;;;4936589;29;20554;-67
2022/11/04 05:11:13;;;;;;;1.10;0.20;;;9.70;99.90;;;;;;4936556;29;20083;-66
2022/11/04 05:13:39;;;;;;;0.15;0.15;;;9.80;99.90;;;;;;4936787;29;20051;-66
2022/11/04 05:16:09;;;;;;;0.20;0.20;;;9.80;99.90;;;;;;4936483;29;20039;-66
2022/11/04 05:18:35;;;;;;;3.70;0.80;;;9.70;99.90;;;;;;4936807;29;20447;-66
2022/11/04 05:21:11;;;;;;;0.28;0.20;;;9.80;99.90;;;;;;4936755;29;20487;-66
2022/11/04 05:23:37;;;;;;;0.30;0.30;;;9.70;99.90;;;;;;4936403;29;20048;-66
2022/11/04 05:26:03;;;;;;;0.25;0.25;;;9.70;99.90;;;;;;4936329;29;20047;-66
2022/11/04 05:28:29;;;;;;;0.15;0.15;;;9.70;99.90;;;;;;4936627;29;20398;-66
2022/11/04 05:30:55;;;;;;;0.65;0.15;;;9.70;99.90;;;;;;4919326;29;20040;-66
2022/11/04 05:33:21;;;;;;;0.95;0.30;;;9.60;99.90;;;;;;4936204;29;20097;-66
2022/11/04 05:35:46;;;;;;;0.20;0.20;;;9.60;99.90;;;;;;4935714;29;20047;-66
2022/11/04 05:38:12;;;;;;;0.20;0.20;;;9.60;99.90;;;;;;4936500;29;20051;-67
2022/11/04 05:40:38;;;;;;;0.10;0.10;;;9.60;99.90;;;;;;4936482;29;20056;-66
2022/11/04 05:43:05;;;;;;;0.10;0.10;;;9.60;99.90;;;;;;4936202;29;20554;-66
2022/11/04 05:45:30;;;;;;;0.38;0.17;;;9.60;99.90;;;;;;4936403;29;20066;-66
2022/11/04 05:48:04;;;;;;;0.35;0.20;;;9.50;99.90;;;;;;4936380;29;20522;-66
2022/11/04 05:50:32;;;;;;;0.20;0.20;;;9.60;99.90;;;;;;4936323;29;20510;-66
2022/11/04 05:52:59;;;;;;;0.43;0.30;;;9.50;99.90;;;;;;4935927;29;20048;-66
2022/11/04 05:55:25;;;;;;;1.45;0.35;;;9.50;99.90;;;;;;4935960;29;20047;-66
2022/11/04 05:57:51;;;;;;;0.28;0.20;;;9.50;99.90;;;;;;4903411;29;20043;-66
2022/11/04 06:00:17;;;;;;;0.50;0.38;;;9.50;99.90;;;;;;4918919;29;20044;-66
2022/11/04 06:02:42;;;;;;;0.38;0.20;;;9.40;99.90;;;;;;4936197;29;20559;-66
2022/11/04 06:05:08;;;;;;;0.28;0.20;;;9.40;99.90;;;;;;4936143;29;20099;-67
2022/11/04 06:07:34;;;;;;;0.20;0.20;;;9.40;99.90;;;;;;4903554;29;20122;-66
2022/11/04 06:10:00;;;;;;;0.30;0.30;;;9.30;99.90;;;;;;4936191;29;20086;-66
2022/11/04 06:12:25;;;;;;;0.77;0.40;;;9.30;99.90;;;;;;4919190;29;20040;-66
2022/11/04 06:14:51;;;;;;;0.17;0.17;;;9.20;99.90;;;;;;4936055;29;20077;-67
2022/11/04 06:17:19;;;;;;;0.20;0.20;;;9.20;99.90;;;;;;4936088;29;20058;-66
2022/11/04 06:19:45;;;;;;;0.15;0.15;;;10.90;99.90;;;;;;4936068;29;20558;-66
2022/11/04 06:22:13;;;;;;;0.30;0.30;;;9.90;99.90;;;;;;4936047;29;20073;-66
2022/11/04 06:24:39;;;;;;;0.80;0.30;;;9.10;99.90;;;;;;4936045;29;20106;-66
2022/11/04 06:27:05;;;;;;;0.22;0.20;;;9.00;99.90;;;;;;4936049;29;20483;-66
2022/11/04 06:29:31;;;;;;;0.30;0.30;;;9.00;99.90;;;;;;4936017;29;20040;-66
2022/11/04 06:31:57;;;;;;;0.20;0.20;;;8.90;99.90;;;;;;4935634;29;20399;-67
2022/11/04 06:34:22;;;;;;;0.40;0.40;;;9.00;99.90;;;;;;4935574;29;20130;-66
2022/11/04 06:36:49;;;;;;;0.47;0.30;;;8.90;99.90;;;;;;4918563;29;20052;-66
2022/11/04 06:39:15;;;;;;;0.60;0.30;;;8.90;99.90;;;;;;4918607;29;20048;-66
2022/11/04 06:41:41;;;;;;;0.20;0.20;;;8.90;99.90;;;;;;4935551;29;20039;-66
2022/11/04 06:44:07;;;;;;;0.43;0.30;;;8.80;99.90;;;;;;4935478;29;20043;-65
2022/11/04 06:46:36;;;;;;;1.45;0.57;;;8.80;99.90;;;;;;4937466;29;20042;-66
2022/11/04 06:49:04;;;;;;;0.43;0.30;;;9.00;99.90;;;;;;4922088;29;20160;-66
2022/11/04 06:51:30;;;;;;;1.88;0.30;;;8.70;99.90;;;;;;4922017;29;20070;-66
2022/11/04 06:53:55;;;;;;;2.13;0.30;;;8.70;99.90;;;;;;4938942;29;20047;-66
2022/11/04 06:56:21;;;;;;;0.35;0.22;;;8.70;99.90;;;;;;4922018;29;20087;-66
2022/11/04 06:58:52;;;;;;;0.40;0.30;;;8.70;99.90;;;;;;4939272;29;20040;-67
2022/11/04 07:01:19;;;;;;;0.32;0.30;;;8.70;99.90;;;;;;4939243;29;20049;-66
2022/11/04 07:03:51;;;;;;;0.55;0.30;;;8.70;99.90;;;;;;4921821;29;20044;-66
2022/11/04 07:06:18;;;;;;;0.98;0.40;;;8.70;99.90;;;;;;4921806;29;20047;-66
2022/11/04 07:08:45;;;;;;;0.55;0.40;;;8.80;99.90;;;;;;4921915;29;20130;-66
2022/11/04 07:11:11;;;;;;;0.38;0.25;;;8.80;99.90;;;;;;4906289;29;20035;-66
2022/11/04 07:13:37;;;;;;;0.43;0.40;;;8.80;99.90;;;;;;4938988;29;20043;-67
2022/11/04 07:16:09;;;;;;;0.88;0.30;;;8.80;99.90;;;;;;4938997;29;20042;-66
2022/11/04 07:18:35;;;;;;;0.85;0.57;;;8.80;99.90;;;;;;4938928;29;20044;-67
2022/11/04 07:21:01;;;;;;;0.30;0.30;;;8.80;99.90;;;;;;4938843;29;20070;-67
2022/11/04 07:23:27;;;;;;;0.35;0.20;;;8.80;99.90;;;;;;4938602;29;20043;-68
2022/11/04 07:25:53;;;;;;;1.75;0.57;;;8.80;99.90;;;;;;4938763;29;20122;-67
2022/11/04 07:28:19;;;;;;;0.30;0.30;;;8.80;99.90;;;;;;4921432;29;20055;-68
2022/11/04 07:30:45;;;;;;;0.35;0.20;;;9.00;99.90;;;;;;4938390;29;20043;-67
2022/11/04 07:33:11;;;;;;;1.38;0.40;;;8.90;99.90;;;;;;4938244;29;20055;-66
2022/11/04 07:35:37;;;;;;;0.32;0.22;;;9.00;99.90;;;;;;4921216;29;20048;-67
2022/11/04 07:38:03;;;;;;;0.22;0.22;;;9.00;99.90;;;;;;4938495;29;20130;-66
2022/11/04 07:40:33;;;;;;;0.35;0.32;;;9.00;99.90;;;;;;4938530;29;20074;-66
2022/11/04 07:42:59;;;;;;;0.40;0.20;;;9.00;99.90;;;;;;4938470;29;20041;-66
2022/11/04 07:45:25;;;;;;;0.45;0.35;;;8.90;99.90;;;;;;4938378;29;20039;-66
2022/11/04 07:47:51;;;;;;;4.25;0.30;;;8.90;99.90;;;;;;4938360;29;20050;-67
2022/11/04 07:50:17;;;;;;;1.23;0.40;;;8.90;99.90;;;;;;4938244;29;20048;-67
2022/11/04 07:52:42;;;;;;;0.45;0.40;;;8.90;99.90;;;;;;4938212;29;20075;-68
2022/11/04 07:55:09;;;;;;;0.30;0.30;;;9.00;99.90;;;;;;4937998;29;20043;-67
2022/11/04 07:57:35;;;;;;;4.97;0.40;;;9.00;99.90;;;;;;4937153;29;20043;-67
2022/11/04 08:00:01;;;;;;;0.40;0.30;;;9.30;99.90;;;;;;4938137;29;20044;-67
2022/11/04 08:02:27;;;;;;;0.43;0.38;;;9.00;99.90;;;;;;4937940;29;20127;-67
2022/11/04 08:04:52;;;;;;;0.40;0.40;;;9.10;99.90;;;;;;4938135;29;20091;-67
2022/11/04 08:07:18;;;;;;;0.60;0.50;;;9.10;99.90;;;;;;4938075;29;20040;-67
2022/11/04 08:09:43;;;;;;;0.47;0.30;;;9.10;99.90;;;;;;4938050;29;20523;-67
2022/11/04 08:12:09;;;;;;;0.43;0.43;;;9.20;99.90;;;;;;4937691;29;20399;-66
2022/11/04 08:14:35;;;;;;;0.40;0.35;;;9.20;99.90;;;;;;4937819;29;20040;-67
2022/11/04 08:17:01;;;;;;;2.03;0.40;;;9.20;99.90;;;;;;4937713;29;20152;-67
2022/11/04 08:19:26;;;;;;;3.10;0.40;;;9.20;99.90;;;;;;4937568;29;20046;-67
2022/11/04 08:21:52;;;;;;;2.15;0.40;;;9.30;99.90;;;;;;4937535;29;20043;-67
2022/11/04 08:24:18;;;;;;;1.75;0.50;;;9.20;99.90;;;;;;4937748;29;20043;-67
2022/11/04 08:26:45;;;;;;;0.30;0.30;;;9.30;99.90;;;;;;4920404;29;20070;-67
2022/11/04 08:29:10;;;;;;;0.73;0.52;;;9.30;99.90;;;;;;4920359;29;20052;-66
2022/11/04 08:31:36;;;;;;;0.50;0.40;;;9.30;99.90;;;;;;4937617;29;20047;-67
2022/11/04 08:34:04;;;;;;;1.45;0.52;;;9.30;99.90;;;;;;4920413;29;20480;-67
2022/11/04 08:36:36;;;;;;;0.40;0.40;;;9.40;99.90;;;;;;4919990;29;20060;-67
2022/11/04 08:39:04;;;;;;;0.40;0.40;;;9.30;99.90;;;;;;4937466;29;20499;-67
2022/11/04 08:41:31;;;;;;;0.52;0.45;;;9.40;99.90;;;;;;4904643;29;20451;-67
2022/11/04 08:44:02;;;;;;;1.05;0.40;;;10.00;99.90;;;;;;4937208;29;20055;-67
2022/11/04 08:46:35;;;;;;;0.73;0.47;;;9.30;99.90;;;;;;4937317;29;20395;-67
2022/11/04 08:49:01;;;;;;;0.40;0.40;;;9.40;99.90;;;;;;4937248;29;20488;-67
2022/11/04 08:51:27;;;;;;;1.27;0.43;;;9.40;99.90;;;;;;4920163;29;20179;-68
2022/11/04 08:53:53;;;;;;;0.40;0.35;;;9.40;99.90;;;;;;4920213;29;20051;-67
2022/11/04 08:56:28;;;;;;;1.02;0.45;;;9.40;99.90;;;;;;4937141;29;20036;-67
2022/11/04 08:58:54;;;;;;;0.20;0.20;;;9.50;99.90;;;;;;4936895;29;20039;-67
2022/11/04 09:01:21;;;;;;;0.68;0.40;;;9.50;99.90;;;;;;4937055;29;20095;-67
2022/11/04 09:03:48;;;;;;;0.30;0.30;;;9.50;99.90;;;;;;4919727;29;20130;-67
2022/11/04 09:06:20;;;;;;;1.33;0.38;;;9.60;99.90;;;;;;4937033;29;20138;-67
2022/11/04 09:08:46;;;;;;;0.32;0.22;;;9.60;99.90;;;;;;4936911;29;20096;-67
2022/11/04 09:11:15;;;;;;;1.00;0.28;;;9.70;99.90;;;;;;4936210;29;20114;-67
2022/11/04 09:13:41;;;;;;;0.68;0.38;;;9.70;99.90;;;;;;4936452;29;20059;-67
2022/11/04 09:16:08;;;;;;;3.53;0.50;;;9.70;99.90;;;;;;4936786;29;20095;-67
2022/11/04 09:18:34;;;;;;;1.70;1.17;;;9.80;99.90;;;;;;4919512;29;20044;-67
2022/11/04 09:21:01;;;;;;;0.30;0.30;;;10.30;99.90;;;;;;4919464;29;20043;-68
2022/11/04 09:23:27;;;;;;;0.35;0.30;;;9.90;99.90;;;;;;4919414;29;20079;-67
2022/11/04 09:25:55;;;;;;;0.30;0.30;;;10.00;99.90;;;;;;4935497;29;20082;-67
2022/11/04 09:28:21;;;;;;;0.40;0.40;;;10.00;99.90;;;;;;4936371;29;20040;-67
2022/11/04 09:30:47;;;;;;;1.55;0.32;;;10.10;99.90;;;;;;4936577;29;20127;-67
2022/11/04 09:33:13;;;;;;;1.50;0.70;;;10.10;99.90;;;;;;4936480;29;20430;-67
2022/11/04 09:35:38;;;;;;;0.55;0.40;;;10.20;99.90;;;;;;4936229;29;20127;-67
2022/11/04 09:38:04;;;;;;;1.10;0.52;;;10.20;99.90;;;;;;4936441;29;20451;-67
2022/11/04 09:40:35;;;;;;;0.73;0.40;;;10.30;99.90;;;;;;4936472;29;20040;-67
2022/11/04 09:43:15;;;;;;;5.70;0.85;;;10.40;99.90;;;;;;4936436;29;20062;-67
2022/11/04 09:45:43;;;;;;;4.28;0.75;;;10.60;99.90;;;;;;4936421;29;20044;-67
2022/11/04 09:48:32;;;;;;;0.50;0.50;;;10.80;99.90;;;;;;4919292;29;20395;-67
2022/11/04 09:51:02;;;;;;;0.57;0.50;;;10.80;99.90;;;;;;4936338;29;20047;-67
2022/11/04 09:53:39;;;;;;;1.27;0.57;;;10.90;99.90;;;;;;4936516;29;20486;-67
2022/11/04 09:56:14;;;;;;;0.88;0.50;;;11.10;99.90;;;;;;4936011;29;20080;-67
2022/11/04 09:58:40;;;;;;;1.40;0.57;;;11.20;99.90;;;;;;4936326;29;20036;-67
2022/11/04 10:01:18;;;;;;;1.50;0.98;;;11.50;99.90;;;;;;4936240;29;20048;-67
2022/11/04 10:03:55;;;;;;;0.77;0.40;;;11.30;99.90;;;;;;4936224;29;20531;-67
2022/11/04 10:06:40;;;;;;;1.55;0.68;;;11.30;99.90;;;;;;4936236;29;20043;-67
2022/11/04 10:09:46;;;;;;;2.50;0.50;;;11.30;99.90;;;;;;4936180;29;20055;-67
2022/11/04 10:12:29;;;;;;;0.60;0.40;;;11.30;99.90;;;;;;4927963;29;20411;-67
2022/11/04 10:15:19;;;;;;;0.70;0.40;;;11.30;99.90;;;;;;4936041;29;20052;-67
2022/11/04 10:18:07;;;;;;;3.17;1.23;;;11.40;99.90;;;;;;4936178;29;20071;-67
2022/11/04 10:21:05;;;;;;;1.00;0.70;;;11.40;99.90;;;;;;4918790;29;20275;-67
2022/11/04 10:23:41;;;;;;;0.68;0.50;;;11.50;99.90;;;;;;4939941;29;20039;-67
2022/11/04 10:26:17;;;;;;;1.10;0.70;;;11.50;99.90;;;;;;4939868;29;20039;-67
2022/11/04 10:28:51;;;;;;;4.38;0.80;;;11.50;99.90;;;;;;4939867;29;20522;-67
2022/11/04 10:31:18;;;;;;;2.45;0.80;;;11.50;99.90;;;;;;4939811;29;20043;-67
2022/11/04 10:33:51;;;;;;;1.30;0.77;;;11.70;99.90;;;;;;4939455;29;20054;-67
2022/11/04 10:36:17;;;;;;;2.13;1.25;;;11.60;99.90;;;;;;4939384;29;20062;-67
2022/11/04 10:38:50;;;;;;;2.08;1.33;;;11.60;99.90;;;;;;4922301;29;20043;-67
2022/11/04 10:41:38;;;;;;;3.05;1.77;;;11.60;99.90;;;;;;4939344;29;20054;-67
2022/11/04 10:44:19;;;;;;;3.45;1.45;;;11.60;99.90;;;;;;4939265;29;20048;-67
2022/11/04 10:46:45;;;;;;;2.92;1.52;;;11.70;99.90;;;;;;4939574;29;20071;-67
2022/11/04 10:49:38;;;;;;;1.60;1.15;;;11.70;99.90;;;;;;4939430;29;20440;-67
2022/11/04 10:52:06;;;;;;;2.88;1.27;;;11.80;99.90;;;;;;4922309;29;20051;-67
2022/11/04 10:54:39;;;;;;;4.68;1.27;;;11.80;99.90;;;;;;4922156;29;20055;-67
2022/11/04 10:57:05;;;;;;;1.90;1.25;;;11.70;99.90;;;;;;4906284;29;20047;-67
2022/11/04 10:59:41;;;;;;;4.20;1.38;;;11.70;99.90;;;;;;4922032;29;20044;-67
2022/11/04 11:02:08;;;;;;;1.65;1.02;;;11.80;99.90;;;;;;4938982;29;20048;-67
2022/11/04 11:04:36;;;;;;;2.55;1.58;;;12.00;99.90;;;;;;4922384;29;20411;-67
2022/11/04 11:07:05;;;;;;;1.85;1.10;;;12.10;99.90;;;;;;4939156;29;20373;-67
2022/11/04 11:09:36;;;;;;;2.28;1.35;;;12.10;99.90;;;;;;4939122;29;20403;-67
2022/11/04 11:12:12;;;;;;;;;;;11.90;99.90;;;;;;4939474;29;20152;-67
2022/11/04 11:14:38;;;;;;;5.05;1.17;;;12.00;99.90;;;;;;4921625;29;19922;-67
2022/11/04 11:17:13;;;;;;;2.65;1.40;;;12.40;99.90;;;;;;4938646;29;20087;-67
2022/11/04 11:20:15;;;;;;;3.20;1.60;;;12.40;99.90;;;;;;4938924;29;20040;-66
2022/11/04 11:22:43;;;;;;;3.40;1.58;;;12.50;99.90;;;;;;4921763;29;20047;-67
2022/11/04 11:25:21;;;;;;;4.03;1.60;;;12.70;99.90;;;;;;4938599;29;20055;-67
2022/11/04 11:27:53;;;;;;;3.08;1.27;;;13.00;99.90;;;;;;4938434;29;20044;-67
2022/11/04 11:30:21;;;;;;;3.58;1.50;;;13.20;99.90;;;;;;4938774;29;20391;-67
2022/11/04 11:33:26;;;;;;;2.65;1.30;;;13.40;99.90;;;;;;4937759;29;20044;-66
2022/11/04 11:35:55;;;;;;;1.33;0.80;;;13.60;99.90;;;;;;4863975;29;20075;-67
2022/11/04 11:38:24;;;;;;;4.07;1.20;;;13.40;99.90;;;;;;4927730;29;20126;-66
2022/11/04 11:40:51;;;;;;;2.17;1.10;;;13.10;99.90;;;;;;4938598;29;20055;-66
2022/11/04 11:43:24;;;;;;;1.60;1.05;;;12.90;99.90;;;;;;4938522;29;20047;-66
2022/11/04 11:45:50;;;;;;;1.30;0.68;;;12.60;99.90;;;;;;4938193;29;20047;-66
2022/11/04 11:48:43;;;;;;;2.95;1.10;;;12.40;99.90;;;;;;4938104;29;20099;-66
2022/11/04 11:51:13;;;;;;;1.83;0.70;;;12.50;99.90;;;;;;4935489;29;20131;-67
2022/11/04 11:53:56;;;;;;;2.37;1.00;;;12.90;99.90;;;;;;4938045;29;20139;-66
2022/11/04 11:56:31;;;;;;;1.50;1.02;;;13.50;99.90;;;;;;4938280;29;20311;-67
2022/11/04 11:59:06;;;;;;;1.33;0.77;;;13.60;99.90;;;;;;4937933;29;20051;-67
2022/11/04 12:01:50;;;;;;;1.73;0.82;;;13.90;99.90;;;;;;4937899;29;20122;-66
2022/11/04 12:04:19;;;;;;;5.75;1.25;;;14.00;99.90;;;;;;4920787;29;20114;-66
2022/11/04 12:07:33;;;;;;;2.03;0.90;;;13.80;99.90;;;;;;4920808;29;20052;-66
2022/11/04 12:10:17;;;;;;;2.75;0.90;;;13.60;99.90;;;;;;4863792;29;20497;-66
2022/11/04 12:12:48;;;;;;;1.20;0.80;;;13.60;99.90;;;;;;4879006;29;20052;-66
2022/11/04 12:15:29;;;;;;;3.05;0.90;;;13.70;99.90;;;;;;4919925;29;20146;-66
2022/11/04 12:18:09;;;;;;;1.38;1.08;;;13.60;99.90;;;;;;4920859;29;20530;-66
2022/11/04 12:20:47;;;;;;;0.75;0.63;;;13.40;99.90;;;;;;4937835;29;20535;-66
2022/11/04 12:23:40;;;;;;;0.50;0.28;;;13.20;99.90;;;;;;4937744;29;20080;-66
2022/11/04 12:26:14;;;;;;;0.65;0.40;;;12.90;99.90;;;;;;4920360;29;20047;-67
2022/11/04 12:29:35;;;;;;;0.30;0.30;;;12.70;99.90;;;;;;4937660;29;20102;-67
2022/11/04 12:32:13;;;;;;;1.10;0.30;;;12.30;99.90;;;;;;4878723;29;20049;-67
2022/11/04 12:35:08;;;;;;;1.45;0.30;;;12.20;99.90;;;;;;4920192;29;20130;-67
2022/11/04 12:37:34;;;;;;;1.75;0.40;;;12.10;99.90;;;;;;4920191;29;20047;-66
2022/11/04 12:40:27;;;;;;;0.98;0.40;;;12.00;99.90;;;;;;4920416;29;20046;-67
2022/11/04 12:43:20;;;;;;;2.63;0.35;;;11.90;99.90;;;;;;4915569;29;20082;-66
2022/11/04 12:46:04;;;;;;;1.27;0.30;;;11.90;99.90;;;;;;4919901;29;20119;-66
2022/11/04 12:48:55;;;;;;;0.88;0.40;;;11.90;99.90;;;;;;4937322;29;20040;-66
2022/11/04 12:51:24;;;;;;;;;;;11.80;99.90;;;;;;4937692;29;20048;-67
2022/11/04 12:54:15;;;;;;;1.88;0.50;;;11.70;99.90;;;;;;4920094;29;20382;-66
2022/11/04 12:56:41;;;;;;;3.03;0.50;;;11.50;99.90;;;;;;4915550;29;20087;-66
2022/11/04 12:59:36;;;;;;;0.35;0.20;;;11.50;99.90;;;;;;4937134;29;20075;-66
2022/11/04 13:02:20;;;;;;;2.38;0.47;;;11.40;99.90;;;;;;4919797;29;20044;-66
2022/11/04 13:04:58;;;;;;;1.33;0.50;;;11.40;99.90;;;;;;4936988;29;20039;-65
2022/11/04 13:07:34;;;;;;;2.40;0.30;;;11.30;99.90;;;;;;4937016;29;20091;-66
2022/11/04 13:10:11;;;;;;;0.95;0.50;;;11.20;99.90;;;;;;4936886;29;20040;-66
2022/11/04 13:12:43;;;;;;;0.20;0.20;;;11.20;99.90;;;;;;4936693;29;20154;-66
2022/11/04 13:15:21;;;;;;;0.43;0.30;;;11.20;99.90;;;;;;4919445;29;20047;-66
2022/11/04 13:17:53;;;;;;;0.22;0.22;;;11.10;99.90;;;;;;4936533;29;20075;-66
2022/11/04 13:20:30;;;;;;;0.45;0.38;;;11.10;99.90;;;;;;4936766;29;20039;-69
2022/11/04 13:23:01;;;;;;;1.98;0.50;;;11.00;99.90;;;;;;4936680;29;20071;-71
2022/11/04 13:25:38;;;;;;;1.38;0.40;;;11.00;99.90;;;;;;4936655;29;20435;-67
2022/11/04 13:28:13;;;;;;;0.47;0.40;;;11.00;99.90;;;;;;4936600;29;20055;-69
2022/11/04 13:31:31;;;;;;;2.33;0.50;;;11.00;99.90;;;;;;4936526;29;20399;-69
2022/11/04 13:34:13;;;;;;;0.22;0.22;;;11.00;99.90;;;;;;4904135;29;20056;-69
2022/11/04 13:36:58;;;;;;;1.35;0.50;;;11.00;99.90;;;;;;4936092;29;20194;-68
2022/11/04 13:39:32;;;;;;;0.50;0.40;;;11.00;99.90;;;;;;4919162;29;20126;-68
2022/11/04 13:42:23;;;;;;;0.73;0.32;;;11.00;99.90;;;;;;4919205;29;20083;-70
2022/11/04 13:44:53;;;;;;;0.20;0.20;;;10.90;99.90;;;;;;4919076;29;20126;-69
2022/11/04 13:47:32;;;;;;;2.08;0.40;;;10.80;99.90;;;;;;4936149;29;20044;-70
2022/11/04 13:49:58;;;;;;;2.80;0.50;;;10.80;99.90;;;;;;4919090;29;20043;-67
2022/11/04 13:52:29;;;;;;;1.08;0.47;;;10.70;99.90;;;;;;4936315;29;20167;-66
2022/11/04 13:54:58;;;;;;;0.98;0.40;;;10.70;99.90;;;;;;4936004;29;20095;-66